Time;durP1;ratioP1;P1;durP2;ratioP2;P2;SDS_P1;SDS_P2;PMS_P1;PMS_P2;Temp;Humidity;BMP_temperature;BMP_pressure;BME280_temperature;BME280_humidity;BME280_pressure;Samples;Min_cycle;Max_cycle;Signal;HPM_P1;HPM_P2
2022/08/26 02:06:02;;;;;;;47.47;25.13;;;;;;;;;;6223356;23;20036;-91
2022/08/26 02:46:40;;;;;;;;;;;;;;;;;;;;;
2022/08/26 03:14:00;;;;;;;51.47;31.20;;;;;;;;;;6237275;23;20027;-92
2022/08/26 03:20:09;;;;;;;54.67;29.45;;;;;;;;;;6104744;23;20421;-92
2022/08/26 03:28:43;;;;;;;;;;;;;;;;;;;;;
2022/08/26 05:29:11;;;;;;;;;;;;;;;;;;;;;
2022/08/26 05:39:03;;;;;;;47.28;25.88;;;;;;;;;;6250449;23;20504;-92
2022/08/26 05:44:47;;;;;;;47.28;24.98;;;21.10;99.90;;;;;;6241300;22;20020;-89
2022/08/26 05:57:10;;;;;;;50.88;24.80;;;;;;;;;;6241552;22;20032;31
2022/08/26 07:26:41;;;;;;;43.67;18.90;;;;;;;;;;6231324;22;20077;-93
2022/08/26 08:02:59;;;;;;;29.88;14.63;;;;;;;;;;6229200;23;20081;-92
2022/08/26 08:15:29;;;;;;;24.65;13.55;;;;;;;;;;6224727;23;20054;-90
2022/08/26 08:47:52;;;;;;;26.60;13.15;;;;;;;;;;6248643;23;20317;-84
2022/08/26 09:21:17;;;;;;;15.38;6.70;;;;;;;;;;6194311;22;20063;-84
2022/08/26 09:23:49;;;;;;;15.38;7.43;;;;;;;;;;6219453;23;20354;-85
2022/08/26 09:26:27;;;;;;;17.02;7.90;;;;;;;;;;6247232;23;20353;-85
2022/08/26 09:31:46;;;;;;;19.63;6.78;;;;;;;;;;6219946;23;20017;-85
2022/08/26 09:34:21;;;;;;;15.23;5.25;;;;;;;;;;6243672;23;20131;-83
2022/08/26 09:37:07;;;;;;;20.08;4.78;;;;;;;;;;6219474;23;20498;-83
2022/08/26 09:39:35;;;;;;;18.02;3.95;;;;;;;;;;6244349;23;20031;-83
2022/08/26 09:45:11;;;;;;;16.48;4.43;;;;;;;;;;6245577;23;20098;-84
2022/08/26 09:51:05;;;;;;;9.35;3.75;;;;;;;;;;6220673;23;20020;-83
2022/08/26 10:00:17;;;;;;;12.32;4.38;;;;;;;;;;6217370;23;20059;-84
2022/08/26 10:06:45;;;;;;;11.60;3.75;;;;;;;;;;6214449;23;20015;-85
2022/08/26 10:20:06;;;;;;;10.30;3.65;;;;;;;;;;6241982;22;20051;-85
2022/08/26 10:32:30;;;;;;;12.10;4.50;;;;;;;;;;6244437;22;20035;-85
2022/08/26 10:38:39;;;;;;;16.45;4.90;;;;;;;;;;6158382;23;20037;-85
2022/08/26 10:41:08;;;;;;;16.60;4.95;;;;;;;;;;6132816;23;20026;-85
2022/08/26 10:47:17;;;;;;;16.33;4.78;;;;;;;;;;6234182;23;20088;-86
2022/08/26 10:49:44;;;;;;;16.42;4.20;;;;;;;;;;6199479;23;20024;-84
2022/08/26 10:52:36;;;;;;;15.50;4.13;;;;;;;;;;6163417;23;20027;-84
2022/08/26 10:55:21;;;;;;;17.42;4.43;;;;;;;;;;6166311;23;20020;-84
2022/08/26 10:58:06;;;;;;;18.13;4.97;;;;;;;;;;6189524;23;20024;-84
2022/08/26 11:17:10;;;;;;;12.23;3.92;;;;;;;;;;6188549;23;20031;-86
2022/08/26 11:19:40;;;;;;;15.60;4.30;;;;;;;;;;6191801;23;20020;-85
2022/08/26 11:22:40;;;;;;;12.70;4.03;;;;;;;;;;6164181;23;20021;-85
2022/08/26 11:25:19;;;;;;;14.68;4.63;;;;;;;;;;6217262;23;20441;-85
2022/08/26 11:27:51;;;;;;;21.20;4.15;;;;;;;;;;6215015;23;20028;-85
2022/08/26 11:30:20;;;;;;;18.05;3.65;;;;;;;;;;6190100;23;20016;-85
2022/08/26 11:32:54;;;;;;;17.55;4.18;;;;;;;;;;6171410;22;20016;-85
2022/08/26 11:35:23;;;;;;;19.20;4.80;;;;;;;;;;6214303;23;20024;-86
2022/08/26 11:38:20;;;;;;;18.98;5.20;;;;;;;;;;6189815;23;20071;-85
2022/08/26 11:46:48;;;;;;;19.30;4.00;;;;;;;;;;6217293;22;20074;-85
2022/08/26 11:53:41;;;;;;;21.40;3.80;;;;;;;;;;6244236;22;20030;-85
2022/08/26 11:56:11;;;;;;;17.73;3.83;;;;;;;;;;6188104;23;20031;-86
2022/08/26 11:58:42;;;;;;;24.55;4.47;;;;;;;;;;6216203;23;20047;-85
2022/08/26 12:01:09;;;;;;;18.80;3.60;;;;;;;;;;6213830;23;20085;-85
2022/08/26 12:03:38;;;;;;;14.10;4.35;;;;;;;;;;6215078;23;20028;-85
2022/08/26 12:06:15;;;;;;;18.30;3.70;;;;;;;;;;6214351;23;20035;-85
2022/08/26 12:25:23;;;;;;;15.00;3.40;;;;;;;;;;6220553;22;20112;-85
2022/08/26 12:31:35;;;;;;;13.20;3.33;;;;;;;;;;6190793;23;20020;-86
2022/08/26 12:34:30;;;;;;;11.52;3.03;;;;;;;;;;6216911;23;20024;-86
2022/08/26 12:39:35;;;;;;;17.73;4.20;;;;;;;;;;6186128;23;20025;-86
2022/08/26 12:42:16;;;;;;;13.25;3.67;;;;;;;;;;6133406;23;20047;-85
2022/08/26 12:44:48;;;;;;;13.45;3.30;;;;;;;;;;6159783;23;20017;-85
2022/08/26 12:47:17;;;;;;;17.23;3.90;;;;;;;;;;6158588;23;20025;-86
2022/08/26 12:49:43;;;;;;;12.30;4.32;;;;;;;;;;6160870;23;20513;-83
2022/08/26 12:52:29;;;;;;;15.55;3.90;;;;;;;;;;6157447;23;20035;-85
2022/08/26 12:55:14;;;;;;;11.80;3.72;;;;;;;;;;6158395;23;20032;-85
2022/08/26 12:58:24;;;;;;;19.05;4.38;;;;;;;;;;6184759;23;20057;-84
2022/08/26 13:01:08;;;;;;;13.32;4.20;;;;;;;;;;6132156;23;20027;-86
2022/08/26 13:13:41;;;;;;;28.17;5.82;;;;;;;;;;6213297;23;20024;-83
2022/08/26 13:32:40;;;;;;;15.57;4.88;;;;;;;;;;6233758;22;20098;-85
2022/08/26 13:59:21;;;;;;;15.85;4.22;;;;;;;;;;6210941;23;20138;-85
2022/08/26 14:08:36;;;;;;;11.45;3.08;;;;;;;;;;6256534;23;20083;-86
2022/08/26 14:11:02;;;;;;;18.15;4.28;;;;;;;;;;6200642;23;20028;-86
2022/08/26 14:24:15;;;;;;;20.30;3.75;;;;;;;;;;6238516;22;20099;-85
2022/08/26 14:40:43;;;;;;;16.13;4.00;;;;;;;;;;6243023;22;20104;-86
2022/08/26 14:43:43;;;;;;;16.58;3.60;;;;;;;;;;6209509;23;20020;-84
2022/08/26 14:46:18;;;;;;;9.90;3.90;;;;;;;;;;6177881;23;20017;-85
2022/08/26 14:48:57;;;;;;;15.65;4.10;;;;;;;;;;6181907;23;20025;-84
2022/08/26 14:51:23;;;;;;;10.35;3.38;;;;;;;;;;6153961;23;20465;-85
2022/08/26 14:56:34;;;;;;;15.80;4.20;;;;;;;;;;6209558;23;20111;-86
2022/08/26 14:59:01;;;;;;;15.68;4.00;;;;;;;;;;6211458;23;20048;-85
2022/08/26 15:01:39;;;;;;;13.75;3.38;;;;;;;;;;6181833;23;20076;-85
2022/08/26 15:04:12;;;;;;;12.15;3.65;;;;;;;;;;6212528;23;20012;-86
2022/08/26 15:06:38;;;;;;;9.35;3.75;;;;;;;;;;6181926;23;20058;-86
2022/08/26 15:09:11;;;;;;;15.82;4.20;;;;;;;;;;6181757;23;20035;-85
2022/08/26 15:11:47;;;;;;;12.70;3.90;;;;;;;;;;6211456;23;20042;-86
2022/08/26 15:14:22;;;;;;;10.85;3.80;;;;;;;;;;6202376;23;20397;-85
2022/08/26 15:16:49;;;;;;;8.32;3.25;;;;;;;;;;6186152;23;20074;-84
2022/08/26 15:19:16;;;;;;;10.18;3.72;;;;;;;;;;6161309;23;20031;-86
2022/08/26 15:22:08;;;;;;;15.48;4.10;;;;;;;;;;6193713;23;20012;-85
2022/08/26 15:24:46;;;;;;;11.93;2.88;;;;;;;;;;6239283;23;20547;-85
2022/08/26 15:27:22;;;;;;;12.10;2.60;;;;;;;;;;6211769;23;20058;-85
2022/08/26 15:30:08;;;;;;;10.80;3.50;;;;;;;;;;6216000;23;20027;-84
2022/08/26 15:32:34;;;;;;;10.90;2.97;;;;;;;;;;6243978;23;20210;-87
2022/08/26 15:35:09;;;;;;;11.60;2.90;;;;;;;;;;6194155;23;20031;-85
2022/08/26 15:37:37;;;;;;;11.45;2.30;;;;;;;;;;6196743;23;20031;-91
2022/08/26 16:16:15;;;;;;;13.23;1.88;;;;;;;;;;6252199;22;20053;-88
2022/08/26 16:18:42;;;;;;;9.40;1.77;;;;;;;;;;6128743;23;20056;-86
2022/08/26 16:21:09;;;;;;;9.40;1.75;;;;;;;;;;6127131;23;20021;-87
2022/08/26 16:23:35;;;;;;;8.32;2.40;;;;;;;;;;6124277;23;20371;-84
2022/08/26 16:26:08;;;;;;;8.80;1.83;;;;;;;;;;6125308;23;20056;-86
2022/08/26 16:28:40;;;;;;;7.75;1.80;;;;;;;;;;6152000;23;20092;-87
2022/08/26 16:31:09;;;;;;;13.85;2.10;;;;;;;;;;6127830;23;20399;-84
2022/08/26 16:33:39;;;;;;;7.82;1.80;;;;;;;;;;6152620;23;20092;-84
2022/08/26 16:36:06;;;;;;;9.45;2.13;;;;;;;;;;6156519;23;20123;-85
2022/08/26 16:38:33;;;;;;;12.13;2.10;;;;;;;;;;6152015;23;20037;-86
2022/08/26 16:40:59;;;;;;;7.65;1.75;;;;;;;;;;6100623;23;20018;-85
2022/08/26 16:43:32;;;;;;;16.75;2.08;;;;;;;;;;6099876;23;20018;-85
2022/08/26 16:45:58;;;;;;;6.18;1.50;;;;;;;;;;6103767;23;20318;-86
2022/08/26 16:48:25;;;;;;;10.95;1.50;;;;;;;;;;6125343;23;20096;-86
2022/08/26 16:50:54;;;;;;;10.90;1.60;;;;;;;;;;6150644;23;20044;-85
2022/08/26 16:53:20;;;;;;;7.80;1.55;;;;;;;;;;6099275;23;20051;-87
2022/08/26 16:55:47;;;;;;;7.75;1.73;;;;;;;;;;6127938;23;20339;-84
2022/08/26 16:58:13;;;;;;;5.22;1.90;;;;;;;;;;6100385;23;20026;-85
2022/08/26 17:00:39;;;;;;;5.28;1.17;;;;;;;;;;6125492;23;20501;-85
2022/08/26 17:03:05;;;;;;;8.13;1.42;;;;;;;;;;6151316;23;20021;-86
2022/08/26 17:05:38;;;;;;;9.60;1.40;;;;;;;;;;6099371;23;20876;-86
2022/08/26 17:08:05;;;;;;;7.00;1.25;;;;;;;;;;6126126;23;20029;-86
2022/08/26 17:10:31;;;;;;;8.95;1.40;;;;;;;;;;6100290;23;20092;-86
2022/08/26 17:12:57;;;;;;;6.82;1.42;;;;;;;;;;6124964;23;20017;-85
2022/08/26 17:15:32;;;;;;;7.25;1.40;;;;;;;;;;6150365;23;20099;-84
2022/08/26 17:17:58;;;;;;;2.88;0.95;;;;;;;;;;6075177;23;20030;-85
2022/08/26 17:20:25;;;;;;;10.85;1.50;;;;;;;;;;6149362;23;20355;-85
2022/08/26 17:23:12;;;;;;;12.77;1.30;;;;;;;;;;6102993;23;20447;-86
2022/08/26 17:25:56;;;;;;;7.22;1.30;;;;;;;;;;6178861;23;20175;-86
2022/08/26 17:28:32;;;;;;;5.00;1.10;;;;;;;;;;6182842;23;20016;-85
2022/08/26 17:30:59;;;;;;;2.58;0.90;;;;;;;;;;6183249;23;20024;-87
2022/08/26 17:33:38;;;;;;;4.38;1.40;;;;;;;;;;6159191;23;20118;-86
2022/08/26 17:36:20;;;;;;;10.82;1.33;;;;;;;;;;6211279;23;20040;-85
2022/08/26 17:41:21;;;;;;;6.32;1.30;;;;;;;;;;6234367;22;20400;-86
2022/08/26 17:43:47;;;;;;;4.50;1.10;;;;;;;;;;6182756;23;20020;-85
2022/08/26 17:46:13;;;;;;;5.65;1.13;;;;;;;;;;6186166;23;20337;-85
2022/08/26 17:48:40;;;;;;;10.38;1.90;;;;;;;;;;6186337;23;20099;-85
2022/08/26 17:51:18;;;;;;;5.53;1.38;;;;;;;;;;6209574;23;20420;-83
2022/08/26 17:53:51;;;;;;;10.70;1.38;;;;;;;;;;6212411;23;20142;-84
2022/08/26 17:56:19;;;;;;;11.23;2.17;;;;;;;;;;6212516;23;20016;-84
2022/08/26 17:58:46;;;;;;;6.93;1.35;;;;;;;;;;6188113;23;20032;-85
2022/08/26 18:01:31;;;;;;;9.90;1.85;;;;;;;;;;6209427;23;20119;-85
2022/08/26 18:03:57;;;;;;;7.60;1.85;;;;;;;;;;6237422;23;20394;-84
2022/08/26 18:06:23;;;;;;;9.05;1.60;;;;;;;;;;6237865;23;20016;-85
2022/08/26 18:08:49;;;;;;;6.22;1.50;;;;;;;;;;6188637;23;20064;-85
2022/08/26 18:11:17;;;;;;;11.85;1.60;;;;;;;;;;6187269;23;20020;-85
2022/08/26 18:13:46;;;;;;;12.48;2.03;;;;;;;;;;6213782;23;20070;-85
2022/08/26 18:16:13;;;;;;;4.22;1.25;;;;;;;;;;6211132;23;20062;-86
2022/08/26 18:18:39;;;;;;;8.75;1.58;;;;;;;;;;6215640;23;20062;-85
2022/08/26 18:21:15;;;;;;;5.85;1.17;;;;;;;;;;6213550;23;20023;-84
2022/08/26 18:23:51;;;;;;;13.45;1.88;;;;;;;;;;6241106;23;20028;-85
2022/08/26 18:26:27;;;;;;;10.05;1.88;;;;;;;;;;6211790;23;20087;-84
2022/08/26 18:28:54;;;;;;;7.97;1.55;;;;;;;;;;6212113;23;20023;-84
2022/08/26 18:31:20;;;;;;;6.90;1.38;;;;;;;;;;6213123;23;20268;-84
2022/08/26 18:33:46;;;;;;;11.00;2.42;;;;;;;;;;6238098;23;20024;-87
2022/08/26 18:36:23;;;;;;;6.45;1.42;;;;;;;;;;6213984;23;20012;-85
2022/08/26 18:38:50;;;;;;;9.60;1.70;;;;;;;;;;6213472;23;20073;-84
2022/08/26 18:41:16;;;;;;;5.88;1.58;;;;;;;;;;6210901;23;20047;-85
2022/08/26 18:43:42;;;;;;;11.05;1.30;;;;;;;;;;6162071;23;20020;-85
2022/08/26 18:46:09;;;;;;;6.07;1.50;;;;;;;;;;6186282;23;20089;-86
2022/08/26 18:48:36;;;;;;;3.60;1.00;;;;;;;;;;6188294;23;20360;-87
2022/08/26 18:51:03;;;;;;;7.70;1.50;;;;;;;;;;6239084;23;20023;-84
2022/08/26 18:53:30;;;;;;;8.88;1.23;;;;;;;;;;6242918;23;20124;-86
2022/08/26 18:55:57;;;;;;;5.35;1.20;;;;;;;;;;6192084;23;20580;-85
2022/08/26 18:58:24;;;;;;;12.43;1.70;;;;;;;;;;6220145;23;20024;-84
2022/08/26 19:00:51;;;;;;;7.28;1.40;;;;;;;;;;6223761;23;20616;-84
2022/08/26 19:03:17;;;;;;;12.18;1.23;;;;;;;;;;6232450;23;20066;-84
2022/08/26 19:05:44;;;;;;;4.93;1.10;;;;;;;;;;6258476;23;20027;-85
2022/08/26 19:08:11;;;;;;;8.10;1.20;;;;;;;;;;6237499;22;20084;-83
2022/08/26 19:10:47;;;;;;;6.10;1.25;;;;;;;;;;6253506;23;20080;-84
2022/08/26 19:13:13;;;;;;;3.72;0.98;;;;;;;;;;6250730;23;20019;-83
2022/08/26 19:15:46;;;;;;;9.23;1.50;;;;;;;;;;6164064;23;20070;-83
2022/08/26 19:18:13;;;;;;;5.75;1.20;;;;;;;;;;6241762;23;20063;-83
2022/08/26 19:20:44;;;;;;;2.78;1.17;;;;;;;;;;6211353;23;20048;-85
2022/08/26 19:23:16;;;;;;;3.00;1.02;;;;;;;;;;6188471;23;20045;-84
2022/08/26 19:25:43;;;;;;;7.10;1.30;;;;;;;;;;6235613;23;20083;-85
2022/08/26 19:28:09;;;;;;;5.93;1.10;;;;;;;;;;6185242;23;20099;-84
2022/08/26 19:30:43;;;;;;;9.70;1.20;;;;;;;;;;6185867;23;20069;-84
2022/08/26 19:33:09;;;;;;;;;;;;;;;;;;6239705;23;20031;-85
2022/08/26 19:35:35;;;;;;;10.05;1.10;;;;;;;;;;6210283;23;19916;-84
2022/08/26 19:38:02;;;;;;;8.77;1.17;;;;;;;;;;6161434;23;20024;-84
2022/08/26 19:40:29;;;;;;;9.18;1.65;;;;;;;;;;6210636;23;20016;-83
2022/08/26 19:42:55;;;;;;;4.85;1.00;;;;;;;;;;6212158;23;20095;-83
2022/08/26 19:45:21;;;;;;;9.88;1.30;;;;;;;;;;6211061;23;20023;-84
2022/08/26 19:47:57;;;;;;;4.28;1.00;;;;;;;;;;6208835;23;20337;-84
2022/08/26 19:50:26;;;;;;;8.75;1.67;;;;;;;;;;6239068;23;20024;-82
2022/08/26 19:53:03;;;;;;;6.43;1.60;;;;;;;;;;6237208;23;20048;-83
2022/08/26 19:55:29;;;;;;;7.13;1.10;;;;;;;;;;6210659;23;20387;-85
2022/08/26 19:57:56;;;;;;;3.60;0.98;;;;;;;;;;6185097;23;20030;-81
2022/08/26 20:00:38;;;;;;;2.50;0.80;;;;;;;;;;6185516;23;20027;-83
2022/08/26 20:03:04;;;;;;;4.85;1.00;;;;;;;;;;6213174;23;20107;-85
2022/08/26 20:05:30;;;;;;;7.75;1.65;;;;;;;;;;6213076;23;20052;-86
2022/08/26 20:07:56;;;;;;;4.38;1.00;;;;;;;;;;6208877;23;20039;-85
2022/08/26 20:10:23;;;;;;;5.05;1.48;;;;;;;;;;6239562;23;20028;-84
2022/08/26 20:12:50;;;;;;;7.57;2.20;;;;;;;;;;6184599;23;20429;-84
2022/08/26 20:15:17;;;;;;;7.45;1.23;;;;;;;;;;6237091;22;20016;-85
2022/08/26 20:17:43;;;;;;;4.90;1.40;;;;;;;;;;6213283;23;20106;-85
2022/08/26 20:23:08;;;;;;;7.10;1.20;;;;;;;;;;6238601;23;20036;-85
2022/08/26 20:45:12;;;;;;;6.17;1.20;;;;;;;;;;6257357;23;20051;-89
2022/08/26 20:58:16;;;;;;;8.52;2.03;;;;;;;;;;6255302;22;20027;-89
2022/08/26 21:38:50;;;;;;;12.40;1.70;;;;;;;;;;6219497;22;20916;31
2022/08/26 21:41:39;;;;;;;9.40;1.23;;;;;;;;;;6074382;23;20036;-91
2022/08/26 21:44:21;;;;;;;10.57;2.42;;;;;;;;;;6069403;23;20014;-91
2022/08/26 22:27:02;;;;;;;7.28;1.55;;;;;;;;;;6206270;23;20084;-89
2022/08/26 22:30:00;;;;;;;11.75;3.45;;;;;;;;;;6191926;23;20083;-89
2022/08/26 22:32:29;;;;;;;7.28;1.95;;;;;;;;;;6188573;23;20032;-89
2022/08/26 22:41:21;;;;;;;8.20;1.40;;;;;;;;;;6261130;22;20055;-88
2022/08/26 22:43:47;;;;;;;5.38;1.45;;;;;;;;;;6226012;23;20020;-90
2022/08/26 22:52:04;;;;;;;7.38;1.38;;;;;;;;;;6181506;23;20036;-90
2022/08/26 23:19:05;;;;;;;9.38;1.30;;;;;;;;;;6172314;22;20091;-88
2022/08/26 23:39:15;;;;;;;;;;;;;;;;;;;;;
